Time;durP1;ratioP1;P1;durP2;ratioP2;P2;SDS_P1;SDS_P2;PMS_P1;PMS_P2;Temp;Humidity;BMP_temperature;BMP_pressure;BME280_temperature;BME280_humidity;BME280_pressure;Samples;Min_cycle;Max_cycle;Signal;HPM_P1;HPM_P2
2022/06/05 00:02:19;;;;;;;10.10;4.80;;;;;;;17.04;57.08;100457.45;106420;1268;140000;-69
2022/06/05 00:04:58;;;;;;;6.50;4.80;;;;;;;16.98;57.30;100460.61;106535;1268;110423;-68
2022/06/05 00:07:37;;;;;;;6.80;4.90;;;;;;;16.89;57.32;100463.33;106427;1270;142129;-68
2022/06/05 00:10:16;;;;;;;10.00;5.00;;;;;;;16.83;57.44;100465.94;106530;1268;109065;-69
2022/06/05 00:12:58;;;;;;;7.90;5.40;;;;;;;16.76;57.49;100463.90;106556;1268;138506;-68
2022/06/05 00:15:30;;;;;;;8.00;4.90;;;;;;;16.70;57.64;100470.38;106567;1268;97215;-68
2022/06/05 00:18:02;;;;;;;7.40;5.20;;;;;;;16.64;57.76;100470.84;106498;1268;110350;-69
2022/06/05 00:20:34;;;;;;;7.70;5.20;;;;;;;16.59;57.80;100469.33;106444;1268;138252;-69
2022/06/05 00:23:06;;;;;;;6.80;4.80;;;;;;;16.54;57.93;100469.98;106514;1268;108840;-68
2022/06/05 00:25:49;;;;;;;6.60;5.40;;;;;;;16.50;57.92;100468.41;106401;1268;138498;-69
2022/06/05 00:28:32;;;;;;;5.90;4.30;;;;;;;16.46;57.97;100474.79;106989;1268;96488;-69
2022/06/05 00:31:13;;;;;;;7.50;4.50;;;;;;;16.39;57.95;100471.66;106383;1268;139189;-68
2022/06/05 00:33:45;;;;;;;7.40;4.70;;;;;;;16.30;58.05;100469.82;106649;1268;107858;-68
2022/06/05 00:36:28;;;;;;;6.10;4.60;;;;;;;16.23;58.07;100468.80;106539;1268;108788;-68
2022/06/05 00:39:07;;;;;;;5.50;4.50;;;;;;;16.18;58.05;100471.53;106702;1268;138840;-69
2022/06/05 00:41:51;;;;;;;6.10;4.70;;;;;;;16.12;58.00;100464.95;106487;1268;96484;-68
2022/06/05 00:44:29;;;;;;;5.70;4.50;;;;;;;16.06;58.03;100463.73;106403;1268;138099;-70
2022/06/05 00:47:02;;;;;;;6.00;4.50;;;;;;;16.01;58.08;100461.17;107438;1267;108966;-68
2022/06/05 00:49:40;;;;;;;5.70;4.50;;;;;;;15.99;57.99;100461.10;106745;1268;139008;-68
2022/06/05 00:52:15;;;;;;;5.30;4.60;;;;;;;15.96;58.01;100459.80;106635;1268;96493;-68
2022/06/05 00:54:47;;;;;;;5.40;4.10;;;;;;;15.93;58.06;100459.64;106854;1268;96276;-69
2022/06/05 00:57:20;;;;;;;5.50;4.20;;;;;;;15.89;58.00;100460.92;106868;1268;111271;-69
2022/06/05 00:59:54;;;;;;;5.70;4.50;;;;;;;15.86;57.92;100461.11;107089;1268;107416;-69
2022/06/05 01:02:53;;;;;;;6.30;4.50;;;;;;;15.83;57.99;100458.09;106575;1268;138565;-69
2022/06/05 01:05:28;;;;;;;5.90;3.90;;;;;;;15.82;58.07;100458.30;106698;1268;96580;-69
2022/06/05 01:08:00;;;;;;;5.30;4.60;;;;;;;15.78;57.87;100453.23;106553;1268;138053;-68
2022/06/05 01:10:41;;;;;;;7.30;4.60;;;;;;;15.72;57.86;100456.15;106626;1268;109318;-69
2022/06/05 01:13:34;;;;;;;5.00;4.10;;;;;;;15.66;57.72;100457.35;106566;1268;139238;-68
2022/06/05 01:16:19;;;;;;;6.10;4.20;;;;;;;15.60;57.67;100453.20;106482;1268;107748;-68
2022/06/05 01:19:00;;;;;;;6.30;4.00;;;;;;;15.57;57.63;100452.82;107214;1268;138806;-68
2022/06/05 01:21:52;;;;;;;6.10;3.70;;;;;;;15.53;57.70;100452.70;107517;1268;95245;-68
2022/06/05 01:24:43;;;;;;;4.20;3.80;;;;;;;15.49;57.63;100448.52;106685;1268;110928;-69
2022/06/05 01:27:19;;;;;;;6.60;3.80;;;;;;;15.44;57.60;100445.25;107529;1268;109939;-69
2022/06/05 01:29:59;;;;;;;7.00;3.80;;;;;;;15.40;57.49;100444.94;107285;1267;107666;-68
2022/06/05 01:32:37;;;;;;;7.20;4.30;;;;;;;15.36;57.41;100445.09;106384;1268;138744;-69
2022/06/05 01:35:17;;;;;;;5.20;3.90;;;;;;;15.33;57.36;100446.84;106670;1268;96334;-69
2022/06/05 01:37:55;;;;;;;5.70;3.90;;;;;;;15.29;57.35;100450.03;107285;1268;138265;-69
2022/06/05 01:40:33;;;;;;;5.20;4.10;;;;;;;15.26;57.35;100448.23;106971;1268;108965;-69
2022/06/05 01:43:10;;;;;;;5.20;4.00;;;;;;;15.24;57.33;100450.60;106845;1268;139232;-69
2022/06/05 01:45:46;;;;;;;6.40;4.00;;;;;;;15.21;57.25;100459.00;106652;1268;96448;-69
2022/06/05 01:48:24;;;;;;;6.30;4.30;;;;;;;15.19;57.35;100468.69;106694;1268;96664;-69
2022/06/05 01:51:00;;;;;;;7.20;4.30;;;;;;;15.20;57.43;100473.23;107058;1268;137607;-69
2022/06/05 01:53:37;;;;;;;8.60;4.30;;;;;;;15.19;57.33;100483.25;107126;1270;109113;-69
2022/06/05 01:56:15;;;;;;;5.20;4.30;;;;;;;15.17;57.20;100482.98;106871;1268;137591;-69
2022/06/05 01:58:54;;;;;;;6.70;5.00;;;;;;;15.15;57.30;100486.79;106585;1269;96559;-69
